Time;durP1;ratioP1;P1;durP2;ratioP2;P2;SDS_P1;SDS_P2;PMS_P1;PMS_P2;Temp;Humidity;BMP_temperature;BMP_pressure;BME280_temperature;BME280_humidity;BME280_pressure;Samples;Min_cycle;Max_cycle;Signal;HPM_P1;HPM_P2
2022/03/06 00:01:04;;;;;;;19.03;11.90;;;;;;;2.08;100.00;99560.78;5157815;27;20190;-79
2022/03/06 00:03:37;;;;;;;24.27;15.53;;;;;;;2.06;100.00;99569.56;5158494;27;20189;-79
2022/03/06 00:06:06;;;;;;;17.87;10.93;;;;;;;2.37;100.00;99564.47;5111213;28;20191;-78
2022/03/06 00:08:35;;;;;;;18.40;11.70;;;;;;;2.32;100.00;99555.88;5108200;28;20218;-79
2022/03/06 00:11:05;;;;;;;22.30;12.40;;;;;;;2.21;100.00;99556.13;5109195;28;20195;-78
2022/03/06 00:13:34;;;;;;;19.50;11.77;;;;;;;2.01;100.00;99561.81;5107681;28;20195;-79
2022/03/06 00:16:05;;;;;;;16.47;10.57;;;;;;;1.97;100.00;99563.66;5104888;28;20195;-79
2022/03/06 00:18:36;;;;;;;23.90;15.43;;;;;;;1.94;100.00;99565.50;5066150;28;20377;-78
2022/03/06 00:21:09;;;;;;;22.13;13.63;;;;;;;1.90;100.00;99569.03;5071804;28;20196;-81
2022/03/06 00:23:37;;;;;;;17.87;12.17;;;;;;;1.91;100.00;99568.16;5066311;28;20189;-79
2022/03/06 00:26:08;;;;;;;20.27;12.53;;;;;;;1.94;100.00;99563.72;5019637;28;20299;-79
2022/03/06 00:28:40;;;;;;;20.90;13.47;;;;;;;1.91;100.00;99566.38;5021042;28;20251;-79
2022/03/06 00:31:10;;;;;;;21.47;12.73;;;;;;;1.84;100.00;99550.91;5066526;28;20189;-79
2022/03/06 00:33:38;;;;;;;21.13;13.57;;;;;;;1.92;100.00;99557.66;5061455;28;20223;-79
2022/03/06 00:36:07;;;;;;;21.87;11.87;;;;;;;2.03;100.00;99561.78;5009468;28;20210;-79
2022/03/06 00:38:36;;;;;;;29.60;15.57;;;;;;;1.94;100.00;99563.72;5002294;28;20198;-78
2022/03/06 00:41:06;;;;;;;20.73;13.47;;;;;;;1.89;100.00;99564.72;5004840;28;20205;-79
2022/03/06 00:43:36;;;;;;;21.23;12.73;;;;;;;1.82;100.00;99560.50;5049244;28;20200;-79
2022/03/06 00:46:05;;;;;;;21.50;12.60;;;;;;;1.78;100.00;99567.56;5068936;28;20197;-79
2022/03/06 00:48:34;;;;;;;22.57;13.40;;;;;;;1.87;100.00;99566.50;5064869;28;20707;-80
2022/03/06 00:51:03;;;;;;;18.27;11.20;;;;;;;1.80;100.00;99572.75;5063918;28;20188;-79
2022/03/06 00:53:31;;;;;;;22.07;11.67;;;;;;;1.73;100.00;99572.00;5077327;27;20197;-79
2022/03/06 00:56:00;;;;;;;21.70;12.60;;;;;;;1.56;100.00;99577.63;5151950;27;20198;-79
2022/03/06 00:58:28;;;;;;;20.07;11.60;;;;;;;1.64;100.00;99578.31;5146105;27;20198;-79
2022/03/06 01:00:58;;;;;;;18.07;11.20;;;;;;;1.57;100.00;99576.72;5149687;27;20197;-79
2022/03/06 01:03:27;;;;;;;20.17;11.67;;;;;;;1.53;100.00;99577.66;5146409;27;20189;-79
2022/03/06 01:05:56;;;;;;;18.80;11.03;;;;;;;1.43;100.00;99583.97;5148719;27;20208;-79
2022/03/06 01:08:25;;;;;;;18.60;11.97;;;;;;;1.44;100.00;99588.28;5152186;27;20209;-79
2022/03/06 01:10:55;;;;;;;17.83;10.43;;;;;;;1.54;100.00;99574.16;5152587;27;20189;-79
2022/03/06 01:13:24;;;;;;;17.83;10.80;;;;;;;1.78;100.00;99572.78;5151214;27;20197;-78
2022/03/06 01:15:58;;;;;;;16.43;11.10;;;;;;;1.69;100.00;99579.06;5149653;27;20190;-79
2022/03/06 01:18:32;;;;;;;17.07;10.67;;;;;;;1.64;100.00;99578.31;5150119;27;20246;-79
2022/03/06 01:21:00;;;;;;;18.70;11.13;;;;;;;1.80;100.00;99583.19;5150508;27;20182;-79
2022/03/06 01:23:30;;;;;;;16.07;10.60;;;;;;;1.74;100.00;99573.75;5152164;27;20193;-78
2022/03/06 01:25:59;;;;;;;17.53;11.00;;;;;;;1.64;100.00;99585.25;5148380;27;20185;-78
2022/03/06 01:28:28;;;;;;;19.10;11.77;;;;;;;1.45;100.00;99587.41;5154841;27;20228;-79
2022/03/06 01:31:00;;;;;;;17.20;11.30;;;;;;;1.36;100.00;99579.78;5154006;27;20194;-79
2022/03/06 01:33:28;;;;;;;16.43;11.30;;;;;;;1.32;100.00;99581.56;5149662;27;20223;-79
2022/03/06 01:35:57;;;;;;;17.37;11.47;;;;;;;1.34;100.00;99571.09;5149606;27;20197;-79
2022/03/06 01:38:25;;;;;;;16.93;11.07;;;;;;;1.25;100.00;99581.72;5146559;27;20201;-79
2022/03/06 01:40:55;;;;;;;17.23;10.97;;;;;;;1.20;100.00;99579.22;5144061;27;20196;-79
2022/03/06 01:43:28;;;;;;;16.93;11.23;;;;;;;1.17;100.00;99579.28;5145720;27;20225;-79
2022/03/06 01:45:56;;;;;;;17.67;11.27;;;;;;;1.29;100.00;99586.00;5149288;27;20641;-79
2022/03/06 01:48:26;;;;;;;17.83;10.73;;;;;;;1.22;100.00;99579.16;5062041;28;20212;-78
2022/03/06 01:50:54;;;;;;;21.00;11.63;;;;;;;1.37;100.00;99582.34;5056365;28;20285;-79
2022/03/06 01:53:23;;;;;;;18.73;11.90;;;;;;;1.20;100.00;99588.78;5059761;28;20195;-80
2022/03/06 01:55:52;;;;;;;17.83;11.37;;;;;;;1.16;100.00;99588.00;5065620;28;20200;-79
2022/03/06 01:58:22;;;;;;;15.83;10.30;;;;;;;1.14;100.00;99588.00;5068690;28;20279;-78
2022/03/06 02:00:51;;;;;;;18.47;11.17;;;;;;;1.10;100.00;99583.75;5067326;28;20200;-79
2022/03/06 02:03:20;;;;;;;18.00;11.43;;;;;;;1.07;100.00;99583.81;5069643;28;20203;-79
2022/03/06 02:05:50;;;;;;;16.33;11.40;;;;;;;1.08;100.00;99580.31;5078469;27;20194;-79
2022/03/06 02:08:20;;;;;;;18.37;11.33;;;;;;;1.02;100.00;99583.00;5150702;27;20225;-79
2022/03/06 02:10:50;;;;;;;21.53;11.70;;;;;;;1.07;100.00;99585.56;5153657;27;20190;-79
2022/03/06 02:13:20;;;;;;;15.73;10.93;;;;;;;1.05;100.00;99582.94;5158889;27;20197;-79
2022/03/06 02:15:49;;;;;;;16.97;10.73;;;;;;;1.02;100.00;99583.00;5151521;27;20667;-79
2022/03/06 02:18:20;;;;;;;19.50;11.60;;;;;;;1.07;100.00;99581.19;5152069;27;20185;-78
2022/03/06 02:20:51;;;;;;;18.33;11.57;;;;;;;1.05;100.00;99569.91;5154279;27;20272;-79
2022/03/06 02:23:22;;;;;;;14.70;10.20;;;;;;;1.08;100.00;99572.47;5153297;27;20197;-79
2022/03/06 02:25:51;;;;;;;20.53;11.07;;;;;;;0.98;100.00;99568.31;5069056;28;20196;-79
2022/03/06 02:28:19;;;;;;;18.77;10.73;;;;;;;0.90;100.00;99567.59;5071486;28;20199;-79
2022/03/06 02:30:50;;;;;;;17.47;10.70;;;;;;;0.88;100.00;99571.13;5068048;28;20219;-78
2022/03/06 02:33:20;;;;;;;16.23;10.67;;;;;;;0.79;100.00;99566.94;5010603;28;20221;-80
2022/03/06 02:35:49;;;;;;;17.67;10.13;;;;;;;0.78;100.00;99567.84;4982894;28;20194;-79
2022/03/06 02:38:18;;;;;;;16.93;10.43;;;;;;;0.82;100.00;99557.31;5009534;28;20210;-79
2022/03/06 02:40:48;;;;;;;17.27;10.73;;;;;;;0.73;100.00;99561.81;5011856;28;20225;-78
2022/03/06 02:43:17;;;;;;;14.90;10.23;;;;;;;0.72;100.00;99557.50;5025424;28;20323;-79
2022/03/06 02:45:45;;;;;;;17.20;10.23;;;;;;;0.62;100.00;99558.56;5090629;28;20211;-79
2022/03/06 02:48:14;;;;;;;19.13;12.20;;;;;;;0.57;100.00;99562.09;5090777;28;20199;-79
2022/03/06 02:50:45;;;;;;;17.30;11.10;;;;;;;0.71;100.00;99554.03;5090641;28;20196;-78
2022/03/06 02:53:14;;;;;;;17.57;10.87;;;;;;;0.63;100.00;99560.28;5091656;28;20195;-79
2022/03/06 02:55:43;;;;;;;17.53;11.17;;;;;;;0.64;100.00;99552.41;5085492;28;20264;-79
2022/03/06 02:58:13;;;;;;;20.17;10.57;;;;;;;0.74;100.00;99553.13;5086363;28;20195;-79
2022/03/06 03:00:42;;;;;;;15.30;9.87;;;;;;;0.64;100.00;99557.63;5085875;28;20196;-79
2022/03/06 03:03:10;;;;;;;15.53;10.27;;;;;;;0.57;100.00;99559.47;5056799;28;20713;-79
2022/03/06 03:05:41;;;;;;;17.87;10.83;;;;;;;0.34;100.00;99558.16;5088915;28;20191;-79
2022/03/06 03:08:11;;;;;;;16.13;10.60;;;;;;;0.27;100.00;99568.66;5087188;28;20200;-78
2022/03/06 03:10:42;;;;;;;16.40;10.47;;;;;;;0.38;100.00;99562.41;5103157;27;20270;-79
2022/03/06 03:13:13;;;;;;;16.03;9.90;;;;;;;0.44;100.00;99564.94;5132866;27;20186;-79
2022/03/06 03:15:44;;;;;;;18.80;11.07;;;;;;;0.66;100.00;99562.81;5126025;27;20247;-79
2022/03/06 03:18:12;;;;;;;16.53;10.17;;;;;;;0.60;100.00;99558.59;5129571;27;20187;-79
2022/03/06 03:20:41;;;;;;;15.67;10.00;;;;;;;0.55;100.00;99565.59;5126790;27;20198;-79
2022/03/06 03:23:10;;;;;;;17.40;10.77;;;;;;;0.65;100.00;99567.16;5133978;27;20201;-78
2022/03/06 03:25:39;;;;;;;16.10;10.20;;;;;;;0.43;100.00;99564.06;5128601;27;20194;-79
2022/03/06 03:28:07;;;;;;;16.63;10.43;;;;;;;0.56;100.00;99565.56;5128501;27;20206;-79
2022/03/06 03:30:37;;;;;;;17.03;11.17;;;;;;;0.46;100.00;99574.44;5128898;27;20302;-79
2022/03/06 03:33:08;;;;;;;16.53;10.77;;;;;;;0.41;100.00;99570.19;5132842;27;20194;-78
2022/03/06 03:35:37;;;;;;;15.57;9.50;;;;;;;0.52;100.00;99571.75;5128022;27;20206;-79
2022/03/06 03:38:05;;;;;;;16.80;10.40;;;;;;;0.47;100.00;99572.69;5128255;27;20276;-78
2022/03/06 03:40:34;;;;;;;15.53;9.90;;;;;;;0.35;100.00;99578.97;5124548;27;20649;-78
2022/03/06 03:43:02;;;;;;;17.30;10.40;;;;;;;0.46;100.00;99579.66;5146937;27;20234;-78
2022/03/06 03:45:31;;;;;;;14.43;10.17;;;;;;;0.27;100.00;99579.06;5153623;27;20254;-78
2022/03/06 03:48:01;;;;;;;16.30;10.60;;;;;;;0.33;100.00;99585.09;5066123;28;20196;-79
2022/03/06 03:50:29;;;;;;;16.97;10.87;;;;;;;0.36;100.00;99578.06;5063190;28;20224;-78
2022/03/06 03:52:58;;;;;;;16.97;10.90;;;;;;;0.37;100.00;99585.00;5062895;28;20207;-78
2022/03/06 03:55:26;;;;;;;15.90;10.50;;;;;;;0.36;100.00;99588.50;5064329;28;20185;-79
2022/03/06 03:57:55;;;;;;;16.90;10.67;;;;;;;0.30;100.00;99598.19;5067180;28;20199;-78
2022/03/06 04:00:24;;;;;;;17.60;11.03;;;;;;;0.50;100.00;99593.50;5061348;28;20202;-79
2022/03/06 04:02:53;;;;;;;16.80;10.50;;;;;;;0.46;100.00;99604.84;5062427;28;20204;-78
2022/03/06 04:05:23;;;;;;;16.83;10.13;;;;;;;0.52;100.00;99589.97;5078015;27;20190;-78
2022/03/06 04:07:51;;;;;;;18.33;11.57;;;;;;;0.45;100.00;99606.59;5151088;27;20201;-78
2022/03/06 04:10:20;;;;;;;17.93;10.57;;;;;;;0.43;100.00;99603.16;5146556;27;20221;-78
2022/03/06 04:12:49;;;;;;;19.23;10.60;;;;;;;0.37;100.00;99602.38;5144226;27;20200;-78
2022/03/06 04:15:19;;;;;;;15.67;10.93;;;;;;;0.44;100.00;99604.00;5152112;27;20197;-78
2022/03/06 04:17:47;;;;;;;17.73;10.90;;;;;;;0.51;100.00;99603.91;5154852;27;20193;-78
2022/03/06 04:20:19;;;;;;;17.83;11.00;;;;;;;0.47;100.00;99602.22;5145782;27;20197;-78
2022/03/06 04:22:50;;;;;;;17.43;10.63;;;;;;;0.51;100.00;99606.50;5142587;27;20215;-78
2022/03/06 04:25:25;;;;;;;16.70;10.23;;;;;;;0.55;100.00;99605.56;5101252;27;20198;-78
2022/03/06 04:27:53;;;;;;;15.47;10.90;;;;;;;0.56;100.00;99607.28;5092154;28;20194;-78
2022/03/06 04:30:23;;;;;;;18.37;10.87;;;;;;;0.56;100.00;99606.41;5084028;28;20709;-78
2022/03/06 04:32:56;;;;;;;19.20;10.60;;;;;;;0.63;100.00;99612.41;5086287;28;20195;-78
2022/03/06 04:35:27;;;;;;;17.90;10.53;;;;;;;0.71;100.00;99614.00;5087589;28;20206;-78
2022/03/06 04:37:56;;;;;;;16.53;10.17;;;;;;;0.76;100.00;99608.69;5087101;28;20202;-78
2022/03/06 04:40:25;;;;;;;15.23;10.57;;;;;;;0.73;100.00;99621.78;5089315;28;20198;-79
2022/03/06 04:42:54;;;;;;;17.37;10.90;;;;;;;0.76;100.00;99616.50;5086350;28;20650;-79
2022/03/06 04:45:24;;;;;;;17.40;10.67;;;;;;;0.71;100.00;99618.34;5049456;28;20696;-78
2022/03/06 04:47:52;;;;;;;15.73;9.87;;;;;;;0.77;100.00;99623.44;5047637;28;20197;-79
2022/03/06 04:50:21;;;;;;;15.93;10.47;;;;;;;0.72;100.00;99627.88;5041160;28;20714;-78
2022/03/06 04:52:54;;;;;;;16.97;10.10;;;;;;;0.83;100.00;99631.16;5044259;28;20325;-78
2022/03/06 04:55:24;;;;;;;20.07;10.93;;;;;;;0.78;100.00;99626.03;5046933;28;20201;-79
2022/03/06 04:57:55;;;;;;;16.43;10.50;;;;;;;0.84;100.00;99636.34;5050450;28;20193;-79
2022/03/06 05:00:23;;;;;;;14.50;9.90;;;;;;;0.86;100.00;99633.72;5106792;28;20191;-79
2022/03/06 05:02:52;;;;;;;16.27;10.87;;;;;;;0.82;100.00;99639.88;5108994;28;20194;-78
2022/03/06 05:05:21;;;;;;;15.37;10.67;;;;;;;0.83;100.00;99633.78;5106930;28;20194;-78
2022/03/06 05:07:49;;;;;;;18.13;11.10;;;;;;;0.82;100.00;99635.53;5106887;28;20197;-79
2022/03/06 05:10:21;;;;;;;17.07;10.33;;;;;;;0.80;100.00;99637.31;5130022;27;20214;-79
2022/03/06 05:12:50;;;;;;;16.20;10.47;;;;;;;0.79;100.00;99630.38;5145613;27;20198;-78
2022/03/06 05:15:22;;;;;;;16.47;10.63;;;;;;;0.73;100.00;99640.88;5147981;27;20253;-78
2022/03/06 05:17:50;;;;;;;17.13;10.20;;;;;;;0.79;100.00;99635.59;5148287;27;20186;-79
2022/03/06 05:20:20;;;;;;;16.73;10.70;;;;;;;0.75;100.00;99640.84;5144491;27;20201;-79
2022/03/06 05:22:50;;;;;;;15.50;10.23;;;;;;;0.79;100.00;99642.53;5151071;27;20288;-78
2022/03/06 05:25:21;;;;;;;15.80;10.53;;;;;;;0.81;100.00;99649.44;5131950;27;20193;-78
2022/03/06 05:27:52;;;;;;;16.33;11.10;;;;;;;0.75;100.00;99649.53;5145265;27;20197;-78
2022/03/06 05:30:21;;;;;;;17.40;10.40;;;;;;;0.76;100.00;99650.41;5106154;28;20260;-78
2022/03/06 05:32:50;;;;;;;17.20;11.00;;;;;;;0.80;100.00;99649.47;5105701;28;20190;-78
2022/03/06 05:35:19;;;;;;;14.80;10.30;;;;;;;0.78;100.00;99648.66;5109172;28;20191;-78
2022/03/06 05:37:48;;;;;;;16.03;10.67;;;;;;;0.76;100.00;99656.47;5108653;28;20187;-79
2022/03/06 05:40:17;;;;;;;15.20;10.20;;;;;;;0.84;100.00;99658.97;5027869;28;20198;-79
2022/03/06 05:42:49;;;;;;;16.40;10.27;;;;;;;0.82;100.00;99663.34;5021469;28;20697;-79
2022/03/06 05:45:20;;;;;;;18.13;10.63;;;;;;;0.75;100.00;99664.31;4957804;28;20268;-79
2022/03/06 05:47:48;;;;;;;17.93;11.00;;;;;;;0.71;100.00;99663.53;4971642;28;20205;-79
2022/03/06 05:50:18;;;;;;;17.20;10.00;;;;;;;0.66;100.00;99661.84;5024642;28;20209;-79
2022/03/06 05:52:49;;;;;;;28.53;19.43;;;;;;;0.70;100.00;99666.16;5027734;28;20205;-79
2022/03/06 05:55:17;;;;;;;18.03;12.37;;;;;;;0.69;100.00;99664.44;5022358;28;20190;-79
2022/03/06 05:57:46;;;;;;;18.17;11.00;;;;;;;0.57;100.00;99668.06;5032863;28;20188;-79
2022/03/06 06:00:17;;;;;;;15.77;10.60;;;;;;;0.49;100.00;99669.97;5075051;28;20199;-79
2022/03/06 06:02:49;;;;;;;15.57;10.73;;;;;;;0.32;100.00;99671.94;5092618;28;20293;-79
2022/03/06 06:05:20;;;;;;;17.00;11.17;;;;;;;0.43;100.00;99672.66;5134783;27;20190;-78
2022/03/06 06:07:48;;;;;;;17.07;10.93;;;;;;;0.43;100.00;99680.47;5133176;27;20281;-79
2022/03/06 06:10:16;;;;;;;17.07;11.00;;;;;;;0.23;100.00;99672.94;5131354;27;20202;-79
2022/03/06 06:12:48;;;;;;;16.30;10.50;;;;;;;0.28;100.00;99677.19;5132216;27;20194;-78
2022/03/06 06:15:17;;;;;;;16.70;11.30;;;;;;;0.18;100.00;99685.13;5130298;27;20213;-79
2022/03/06 06:17:47;;;;;;;18.67;11.43;;;;;;;0.21;100.00;99679.91;5128485;27;20198;-78
2022/03/06 06:20:15;;;;;;;16.83;11.43;;;;;;;-0.10;100.00;99684.63;5116275;27;20209;-78
2022/03/06 06:22:46;;;;;;;15.73;10.80;;;;;;;-0.14;100.00;99694.22;5121364;27;20190;-79
2022/03/06 06:25:16;;;;;;;18.63;11.43;;;;;;;-0.16;100.00;99684.72;5128087;27;20187;-78
2022/03/06 06:27:45;;;;;;;18.77;11.30;;;;;;;-0.08;100.00;99690.72;5130495;27;20202;-78
2022/03/06 06:30:15;;;;;;;19.30;10.87;;;;;;;-0.39;100.00;99698.84;5130407;27;20202;-78
2022/03/06 06:32:44;;;;;;;17.17;11.00;;;;;;;-0.23;100.00;99693.47;5068883;28;20222;-78
2022/03/06 06:35:14;;;;;;;19.23;11.47;;;;;;;-0.20;100.00;99698.66;5068049;28;20197;-78
2022/03/06 06:37:44;;;;;;;19.37;11.17;;;;;;;-0.18;100.00;99695.16;4986038;28;20191;-78
2022/03/06 06:40:15;;;;;;;18.50;11.80;;;;;;;-0.36;100.00;99698.84;4945770;28;20372;-78
2022/03/06 06:42:44;;;;;;;16.93;11.17;;;;;;;-0.31;100.00;99694.44;4889177;29;20234;-78
2022/03/06 06:45:14;;;;;;;16.80;10.97;;;;;;;-0.13;100.00;99697.69;4893598;29;20290;-79
2022/03/06 06:47:44;;;;;;;18.57;11.63;;;;;;;-0.22;100.00;99696.06;4892752;29;20201;-78
2022/03/06 06:50:15;;;;;;;17.40;11.00;;;;;;;-0.23;100.00;99696.09;4904625;28;20193;-78
2022/03/06 06:52:46;;;;;;;16.00;10.83;;;;;;;-0.19;100.00;99709.06;4948781;28;20242;-78
2022/03/06 06:55:17;;;;;;;18.43;11.70;;;;;;;-0.25;100.00;99716.94;4962435;28;20199;-78
2022/03/06 06:57:46;;;;;;;19.03;11.63;;;;;;;-0.18;100.00;99717.72;4989390;28;20207;-78
2022/03/06 07:00:18;;;;;;;18.03;10.93;;;;;;;-0.16;100.00;99721.19;4996863;28;20198;-78
2022/03/06 07:02:46;;;;;;;18.43;11.47;;;;;;;-0.21;100.00;99717.75;5027856;28;20200;-78
2022/03/06 07:05:17;;;;;;;20.17;11.10;;;;;;;0.02;100.00;99717.50;5054374;28;20232;-78
2022/03/06 07:07:46;;;;;;;19.10;11.90;;;;;;;0.04;100.00;99718.34;5066992;28;20242;-78
2022/03/06 07:10:15;;;;;;;16.93;10.97;;;;;;;0.09;100.00;99716.50;5066698;28;20230;-78
2022/03/06 07:12:47;;;;;;;17.33;11.77;;;;;;;0.23;100.00;99725.03;5071105;28;20713;-80
2022/03/06 07:15:16;;;;;;;18.20;11.10;;;;;;;0.38;100.00;99724.81;5071952;28;20230;-78
2022/03/06 07:17:44;;;;;;;17.50;10.80;;;;;;;0.56;100.00;99723.69;5037649;28;20188;-78
2022/03/06 07:20:13;;;;;;;16.57;10.73;;;;;;;0.64;100.00;99720.97;5067202;28;20188;-78
2022/03/06 07:22:44;;;;;;;16.53;10.67;;;;;;;0.67;100.00;99721.78;5066231;28;20204;-78
2022/03/06 07:25:13;;;;;;;16.43;10.97;;;;;;;0.81;100.00;99726.81;5068207;28;20189;-78
2022/03/06 07:27:45;;;;;;;19.17;11.53;;;;;;;0.92;100.00;99730.09;5054940;28;20220;-77
2022/03/06 07:30:14;;;;;;;19.90;10.97;;;;;;;0.98;100.00;99727.41;5069759;28;20208;-77
2022/03/06 07:32:44;;;;;;;16.13;11.40;;;;;;;1.18;100.00;99729.69;5065011;28;20248;-77
2022/03/06 07:35:15;;;;;;;18.67;10.93;;;;;;;1.22;100.00;99730.50;5069557;28;20185;-77
2022/03/06 07:37:45;;;;;;;17.30;11.70;;;;;;;1.32;100.00;99730.28;5072607;28;20211;-78
2022/03/06 07:40:18;;;;;;;16.90;11.27;;;;;;;1.32;100.00;99724.22;5070143;28;20205;-78
2022/03/06 07:42:47;;;;;;;23.43;15.70;;;;;;;1.37;100.00;99723.25;5124663;27;20217;-78
2022/03/06 07:45:18;;;;;;;19.20;12.03;;;;;;;1.41;100.00;99730.13;5148084;27;20205;-78
2022/03/06 07:47:46;;;;;;;18.37;12.80;;;;;;;1.51;100.00;99725.63;5155904;27;20297;-78
2022/03/06 07:50:18;;;;;;;14.37;10.73;;;;;;;1.43;100.00;99728.34;5152635;27;20205;-78
2022/03/06 07:52:51;;;;;;;16.93;11.63;;;;;;;1.63;100.00;99719.31;5148508;27;20539;-78
2022/03/06 07:55:22;;;;;;;17.63;11.53;;;;;;;1.82;100.00;99733.72;5147611;27;20190;-78
2022/03/06 07:57:58;;;;;;;16.13;11.83;;;;;;;1.71;100.00;99730.47;5147209;27;20186;-78
2022/03/06 08:00:29;;;;;;;17.43;11.43;;;;;;;2.03;100.00;99747.25;5116167;27;20777;-78
2022/03/06 08:02:58;;;;;;;17.03;11.60;;;;;;;1.96;100.00;99746.53;5149478;27;20193;-78
2022/03/06 08:05:27;;;;;;;15.70;10.83;;;;;;;2.37;100.00;99737.84;5147660;27;20198;-78
2022/03/06 08:07:59;;;;;;;19.73;11.17;;;;;;;2.49;100.00;99747.16;5156547;27;20223;-77
2022/03/06 08:10:28;;;;;;;15.03;11.17;;;;;;;2.41;100.00;99731.63;5145724;27;20239;-78
2022/03/06 08:12:57;;;;;;;14.40;10.63;;;;;;;2.56;100.00;99740.91;5149756;27;20304;-79
2022/03/06 08:15:27;;;;;;;17.07;10.83;;;;;;;2.81;100.00;99734.25;5153893;27;20221;-78
2022/03/06 08:17:56;;;;;;;14.03;10.90;;;;;;;2.84;100.00;99744.63;5149462;27;20781;-78
2022/03/06 08:20:24;;;;;;;15.77;9.83;;;;;;;2.95;100.00;99735.66;5152587;27;20198;-77
2022/03/06 08:22:57;;;;;;;14.87;11.10;;;;;;;3.17;100.00;99742.09;5148166;27;20190;-78
2022/03/06 08:25:27;;;;;;;16.70;10.63;;;;;;;3.21;100.00;99743.75;5090272;28;20207;-78
2022/03/06 08:27:57;;;;;;;15.33;9.93;;;;;;;3.34;100.00;99739.06;5086464;28;20233;-78
2022/03/06 08:30:26;;;;;;;13.30;9.87;;;;;;;3.27;100.00;99740.09;5079480;28;20220;-78
2022/03/06 08:32:57;;;;;;;16.53;10.53;;;;;;;3.40;100.00;99731.06;5086411;28;20211;-78
2022/03/06 08:35:26;;;;;;;13.20;9.83;;;;;;;3.58;100.00;99721.88;5088730;28;20191;-78
2022/03/06 08:37:56;;;;;;;15.23;10.07;;;;;;;3.80;100.00;99735.25;5086071;28;20204;-78
2022/03/06 08:40:29;;;;;;;15.87;10.23;;;;;;;3.84;100.00;99724.63;5087069;28;20195;-81
2022/03/06 08:43:00;;;;;;;15.97;10.40;;;;;;;3.98;100.00;99727.75;5087887;28;20266;-78
2022/03/06 08:45:29;;;;;;;16.53;10.70;;;;;;;4.04;100.00;99731.94;5055525;28;20210;-78
2022/03/06 08:47:57;;;;;;;14.40;9.90;;;;;;;3.52;100.00;99735.13;5083561;28;20203;-77
2022/03/06 08:50:28;;;;;;;15.60;10.30;;;;;;;3.53;100.00;99742.94;5052205;28;20211;-78
2022/03/06 08:52:57;;;;;;;15.10;10.50;;;;;;;3.71;100.00;99749.44;5070822;28;20220;-77
2022/03/06 08:55:28;;;;;;;11.63;7.63;;;;;;;3.96;100.00;99740.03;5071102;28;20207;-77
2022/03/06 08:57:57;;;;;;;10.40;7.80;;;;;;;4.12;100.00;99743.06;5011818;28;20194;-78
2022/03/06 09:00:26;;;;;;;8.80;7.30;;;;;;;4.28;100.00;99735.63;5001739;28;20311;-78
2022/03/06 09:02:54;;;;;;;9.70;7.43;;;;;;;4.41;94.89;99739.59;5006679;28;20212;-78
2022/03/06 09:05:29;;;;;;;10.40;7.33;;;;;;;4.62;92.49;99740.72;4931363;29;20197;-78
2022/03/06 09:07:58;;;;;;;7.63;5.97;;;;;;;4.72;82.78;99747.38;4944537;28;20207;-78
2022/03/06 09:10:27;;;;;;;9.07;6.73;;;;;;;5.05;81.59;99742.00;4987378;28;20195;-78
2022/03/06 09:13:00;;;;;;;7.67;6.10;;;;;;;5.26;81.37;99735.19;4985657;28;20321;-78
2022/03/06 09:15:29;;;;;;;7.80;6.60;;;;;;;5.13;81.01;99747.88;5000681;28;20649;-78
2022/03/06 09:17:59;;;;;;;7.33;6.10;;;;;;;5.37;77.38;99744.44;5044218;28;20194;-78
2022/03/06 09:20:28;;;;;;;8.80;7.00;;;;;;;5.33;74.94;99729.69;5051747;28;20196;-78
2022/03/06 09:22:59;;;;;;;9.70;7.23;;;;;;;5.60;70.23;99743.66;5016607;28;20196;-79
2022/03/06 09:25:32;;;;;;;8.60;6.67;;;;;;;5.83;68.02;99739.38;5086316;28;20227;-78
2022/03/06 09:28:05;;;;;;;8.40;6.47;;;;;;;5.67;66.49;99742.53;5088623;28;20208;-77
2022/03/06 09:30:37;;;;;;;7.60;6.23;;;;;;;5.90;65.53;99752.28;5066489;28;20196;-80
2022/03/06 09:33:05;;;;;;;8.70;6.60;;;;;;;6.08;62.88;99745.53;5063706;28;20224;-78
2022/03/06 09:35:34;;;;;;;8.47;6.53;;;;;;;6.15;64.56;99752.25;5026877;28;20201;-78
2022/03/06 09:38:03;;;;;;;8.23;6.03;;;;;;;5.92;64.93;99745.19;5027934;28;20213;-78
2022/03/06 09:40:34;;;;;;;8.77;5.90;;;;;;;5.88;61.02;99750.56;5030613;28;20195;-78
2022/03/06 09:43:03;;;;;;;8.73;6.93;;;;;;;6.31;59.69;99752.56;5044131;28;20236;-78
2022/03/06 09:45:42;;;;;;;6.60;5.83;;;;;;;6.69;59.79;99751.09;5039251;28;20239;-79
2022/03/06 09:48:11;;;;;;;7.57;6.10;;;;;;;6.99;56.52;99746.41;5061804;28;20222;-79
2022/03/06 09:50:40;;;;;;;7.67;6.07;;;;;;;7.25;53.14;99741.88;5102516;28;20281;-78
2022/03/06 09:53:12;;;;;;;8.47;6.80;;;;;;;7.00;51.85;99742.00;5119510;27;20217;-78
2022/03/06 09:55:44;;;;;;;7.63;5.90;;;;;;;7.05;51.36;99737.41;5152229;27;20182;-78
2022/03/06 09:58:17;;;;;;;7.17;5.83;;;;;;;7.30;52.76;99746.03;5149282;27;20197;-78
2022/03/06 10:00:46;;;;;;;6.83;5.70;;;;;;;6.54;51.57;99742.00;5150744;27;20201;-78
2022/03/06 10:03:21;;;;;;;8.90;7.23;;;;;;;6.36;54.39;99740.06;5149358;27;20194;-78
2022/03/06 10:05:52;;;;;;;8.53;6.87;;;;;;;6.31;53.92;99747.28;5151306;27;20648;-78
2022/03/06 10:08:24;;;;;;;6.73;5.97;;;;;;;6.21;57.05;99759.06;5146981;27;20648;-78
2022/03/06 10:11:10;;;;;;;7.87;6.87;;;;;;;6.03;59.44;99753.56;5138067;27;20200;-78
2022/03/06 10:13:41;;;;;;;7.70;5.60;;;;;;;6.49;56.09;99746.59;5154939;27;20209;-83
2022/03/06 10:16:13;;;;;;;7.87;5.70;;;;;;;6.56;54.15;99741.94;5152881;27;20201;-78
2022/03/06 10:18:48;;;;;;;7.50;5.90;;;;;;;6.74;54.87;99753.53;5144265;27;20696;-78
2022/03/06 10:21:26;;;;;;;8.10;6.00;;;;;;;6.39;56.38;99744.38;5071005;28;20207;-77
2022/03/06 10:23:56;;;;;;;8.23;6.20;;;;;;;6.83;55.12;99738.25;5064495;28;20399;-78
2022/03/06 10:26:28;;;;;;;7.90;7.10;;;;;;;6.65;55.64;99744.22;5062898;28;20204;-78
2022/03/06 10:28:59;;;;;;;7.03;6.17;;;;;;;6.82;56.14;99733.03;5072037;28;20268;-78
2022/03/06 10:31:29;;;;;;;7.50;6.07;;;;;;;6.76;57.02;99736.81;5066846;28;20192;-78
2022/03/06 10:34:06;;;;;;;6.73;5.87;;;;;;;6.72;56.73;99742.22;5065087;28;20219;-78
2022/03/06 10:36:40;;;;;;;8.30;5.90;;;;;;;6.52;56.18;99740.34;5070667;28;20310;-78
2022/03/06 10:39:17;;;;;;;6.63;5.50;;;;;;;6.46;55.39;99735.31;5075288;28;20215;-79
2022/03/06 10:41:49;;;;;;;9.63;6.60;;;;;;;6.18;55.49;99746.91;5081452;28;20188;-78
2022/03/06 10:44:23;;;;;;;6.97;6.03;;;;;;;5.99;56.92;99740.59;5053701;28;20196;-78
2022/03/06 10:47:01;;;;;;;7.17;5.70;;;;;;;6.71;53.19;99741.38;5023865;28;20314;-79
2022/03/06 10:49:33;;;;;;;7.43;6.10;;;;;;;7.12;51.93;99736.22;5028771;28;20217;-78
2022/03/06 10:52:14;;;;;;;6.50;5.50;;;;;;;7.72;49.51;99731.94;5028875;28;20206;-79
2022/03/06 10:54:53;;;;;;;7.50;6.00;;;;;;;8.17;48.43;99728.22;5027868;28;20224;-78
2022/03/06 10:57:24;;;;;;;6.87;6.00;;;;;;;8.20;47.92;99723.69;5021867;28;20200;-79
2022/03/06 10:59:55;;;;;;;6.77;5.80;;;;;;;8.59;45.79;99726.28;5031350;28;20206;-79
2022/03/06 11:02:24;;;;;;;7.90;6.60;;;;;;;8.38;44.72;99724.63;5032623;28;20193;-78
2022/03/06 11:04:57;;;;;;;7.67;6.23;;;;;;;8.44;44.52;99729.63;5067824;27;20247;-78
2022/03/06 11:07:30;;;;;;;7.83;7.03;;;;;;;8.81;43.51;99728.78;5131503;27;20202;-79
2022/03/06 11:10:00;;;;;;;7.80;7.00;;;;;;;8.93;43.46;99723.84;5097546;27;20202;-78
2022/03/06 11:12:32;;;;;;;10.53;9.50;;;;;;;9.03;43.64;99723.31;5132235;27;20194;-79
2022/03/06 11:15:03;;;;;;;8.40;7.60;;;;;;;8.68;44.07;99722.34;5129160;27;20218;-79
2022/03/06 11:17:32;;;;;;;9.17;7.10;;;;;;;9.08;43.65;99718.66;5122651;27;20259;-79
2022/03/06 11:20:01;;;;;;;8.70;6.40;;;;;;;8.85;43.91;99717.13;5134337;27;20186;-79
2022/03/06 11:22:39;;;;;;;7.90;6.97;;;;;;;8.51;44.80;99723.16;5127753;27;20199;-78
2022/03/06 11:25:11;;;;;;;9.00;6.97;;;;;;;9.08;43.08;99717.81;5123878;27;20201;-79
2022/03/06 11:27:51;;;;;;;7.73;6.57;;;;;;;9.75;42.63;99714.44;5129330;27;20270;-78
2022/03/06 11:30:22;;;;;;;9.20;7.07;;;;;;;9.85;42.26;99714.81;5133629;27;20201;-78
2022/03/06 11:33:02;;;;;;;8.27;6.87;;;;;;;9.61;43.91;99715.13;5127525;27;20186;-78
2022/03/06 11:35:33;;;;;;;8.53;6.67;;;;;;;9.87;43.17;99720.88;5081995;27;20218;-79